sensor_id;sensor_type;location;lat;lon;timestamp;P1;durP1;ratioP1;P2;durP2;ratioP2
47715;SDS011;33476;50.984;3.538;2022-12-18T00:01:20;53.17;;;23.27;;
47715;SDS011;33476;50.984;3.538;2022-12-18T00:03:54;51.28;;;22.63;;
47715;SDS011;33476;50.984;3.538;2022-12-18T00:06:20;56.42;;;23.75;;
47715;SDS011;33476;50.984;3.538;2022-12-18T00:08:47;51.40;;;21.65;;
47715;SDS011;33476;50.984;3.538;2022-12-18T00:11:16;49.85;;;22.15;;
47715;SDS011;33476;50.984;3.538;2022-12-18T00:13:43;55.33;;;22.48;;
47715;SDS011;33476;50.984;3.538;2022-12-18T00:16:10;49.17;;;20.42;;
47715;SDS011;33476;50.984;3.538;2022-12-18T00:18:38;51.83;;;21.50;;
47715;SDS011;33476;50.984;3.538;2022-12-18T00:21:04;53.97;;;20.80;;
47715;SDS011;33476;50.984;3.538;2022-12-18T00:23:31;47.55;;;19.88;;
47715;SDS011;33476;50.984;3.538;2022-12-18T00:26:00;47.95;;;20.77;;
47715;SDS011;33476;50.984;3.538;2022-12-18T00:28:28;43.40;;;20.13;;
47715;SDS011;33476;50.984;3.538;2022-12-18T00:31:03;44.80;;;20.13;;
47715;SDS011;33476;50.984;3.538;2022-12-18T00:33:29;42.85;;;18.85;;
47715;SDS011;33476;50.984;3.538;2022-12-18T00:35:59;45.30;;;19.27;;
47715;SDS011;33476;50.984;3.538;2022-12-18T00:38:35;44.50;;;19.70;;
47715;SDS011;33476;50.984;3.538;2022-12-18T00:41:01;43.70;;;20.02;;
47715;SDS011;33476;50.984;3.538;2022-12-18T00:43:27;45.72;;;19.00;;
47715;SDS011;33476;50.984;3.538;2022-12-18T00:45:53;43.08;;;18.80;;
47715;SDS011;33476;50.984;3.538;2022-12-18T00:48:19;44.15;;;18.63;;
47715;SDS011;33476;50.984;3.538;2022-12-18T00:50:45;40.38;;;18.77;;
47715;SDS011;33476;50.984;3.538;2022-12-18T00:53:12;44.17;;;18.52;;
47715;SDS011;33476;50.984;3.538;2022-12-18T00:55:38;43.78;;;18.48;;
47715;SDS011;33476;50.984;3.538;2022-12-18T00:58:04;45.33;;;18.70;;
47715;SDS011;33476;50.984;3.538;2022-12-18T01:00:29;43.72;;;18.70;;
47715;SDS011;33476;50.984;3.538;2022-12-18T01:02:55;42.67;;;18.05;;
47715;SDS011;33476;50.984;3.538;2022-12-18T01:05:20;39.63;;;17.65;;
47715;SDS011;33476;50.984;3.538;2022-12-18T01:07:45;48.35;;;19.08;;
47715;SDS011;33476;50.984;3.538;2022-12-18T01:10:12;37.53;;;17.13;;
47715;SDS011;33476;50.984;3.538;2022-12-18T01:12:38;39.42;;;17.05;;
47715;SDS011;33476;50.984;3.538;2022-12-18T01:15:05;41.08;;;16.70;;
47715;SDS011;33476;50.984;3.538;2022-12-18T01:17:31;37.65;;;16.50;;
47715;SDS011;33476;50.984;3.538;2022-12-18T01:19:57;37.03;;;16.48;;
47715;SDS011;33476;50.984;3.538;2022-12-18T01:22:22;39.35;;;16.58;;
47715;SDS011;33476;50.984;3.538;2022-12-18T01:24:47;36.35;;;16.25;;
47715;SDS011;33476;50.984;3.538;2022-12-18T01:27:13;38.95;;;16.58;;
47715;SDS011;33476;50.984;3.538;2022-12-18T01:29:38;36.08;;;15.45;;
47715;SDS011;33476;50.984;3.538;2022-12-18T01:32:04;35.78;;;16.00;;
47715;SDS011;33476;50.984;3.538;2022-12-18T01:34:29;36.25;;;15.85;;
47715;SDS011;33476;50.984;3.538;2022-12-18T01:36:54;32.83;;;15.13;;
47715;SDS011;33476;50.984;3.538;2022-12-18T01:39:20;36.97;;;15.80;;
47715;SDS011;33476;50.984;3.538;2022-12-18T01:41:46;32.95;;;15.40;;
47715;SDS011;33476;50.984;3.538;2022-12-18T01:49:53;37.70;;;15.93;;
47715;SDS011;33476;50.984;3.538;2022-12-18T01:52:20;39.30;;;15.82;;
47715;SDS011;33476;50.984;3.538;2022-12-18T01:54:46;37.35;;;16.15;;
47715;SDS011;33476;50.984;3.538;2022-12-18T01:57:13;31.70;;;14.80;;
47715;SDS011;33476;50.984;3.538;2022-12-18T01:59:39;32.38;;;15.43;;
47715;SDS011;33476;50.984;3.538;2022-12-18T02:02:07;33.22;;;14.93;;
47715;SDS011;33476;50.984;3.538;2022-12-18T02:04:33;35.90;;;15.90;;
47715;SDS011;33476;50.984;3.538;2022-12-18T02:07:19;36.10;;;15.32;;
47715;SDS011;33476;50.984;3.538;2022-12-18T02:15:17;35.83;;;16.10;;
47715;SDS011;33476;50.984;3.538;2022-12-18T02:17:54;37.05;;;16.33;;
47715;SDS011;33476;50.984;3.538;2022-12-18T02:23:32;40.90;;;17.25;;
47715;SDS011;33476;50.984;3.538;2022-12-18T02:26:17;41.35;;;16.75;;
47715;SDS011;33476;50.984;3.538;2022-12-18T02:29:05;38.38;;;16.63;;
47715;SDS011;33476;50.984;3.538;2022-12-18T02:31:36;40.22;;;16.33;;
47715;SDS011;33476;50.984;3.538;2022-12-18T02:34:08;39.33;;;16.35;;
47715;SDS011;33476;50.984;3.538;2022-12-18T02:36:35;33.63;;;15.85;;
47715;SDS011;33476;50.984;3.538;2022-12-18T02:39:03;35.67;;;16.13;;
47715;SDS011;33476;50.984;3.538;2022-12-18T02:41:31;40.25;;;16.90;;
47715;SDS011;33476;50.984;3.538;2022-12-18T02:44:00;43.25;;;16.75;;
47715;SDS011;33476;50.984;3.538;2022-12-18T02:48:56;34.10;;;15.73;;
47715;SDS011;33476;50.984;3.538;2022-12-18T02:51:34;43.58;;;16.15;;
47715;SDS011;33476;50.984;3.538;2022-12-18T02:54:29;39.15;;;16.50;;
47715;SDS011;33476;50.984;3.538;2022-12-18T02:57:14;37.28;;;16.30;;
47715;SDS011;33476;50.984;3.538;2022-12-18T02:59:55;35.95;;;16.38;;
47715;SDS011;33476;50.984;3.538;2022-12-18T03:02:26;34.88;;;16.30;;
47715;SDS011;33476;50.984;3.538;2022-12-18T03:05:10;34.67;;;15.88;;
47715;SDS011;33476;50.984;3.538;2022-12-18T03:07:38;48.78;;;16.60;;
47715;SDS011;33476;50.984;3.538;2022-12-18T03:10:13;36.00;;;16.40;;
47715;SDS011;33476;50.984;3.538;2022-12-18T03:15:21;39.08;;;16.83;;
47715;SDS011;33476;50.984;3.538;2022-12-18T03:17:54;36.15;;;13.85;;
47715;SDS011;33476;50.984;3.538;2022-12-18T03:20:25;40.25;;;18.33;;
47715;SDS011;33476;50.984;3.538;2022-12-18T03:22:56;41.20;;;17.45;;
47715;SDS011;33476;50.984;3.538;2022-12-18T03:25:27;40.30;;;17.40;;
47715;SDS011;33476;50.984;3.538;2022-12-18T03:27:54;38.78;;;17.00;;
47715;SDS011;33476;50.984;3.538;2022-12-18T03:30:23;44.65;;;17.90;;
47715;SDS011;33476;50.984;3.538;2022-12-18T03:32:56;36.55;;;17.30;;
47715;SDS011;33476;50.984;3.538;2022-12-18T03:35:28;37.45;;;16.73;;
47715;SDS011;33476;50.984;3.538;2022-12-18T03:37:56;37.35;;;16.98;;
47715;SDS011;33476;50.984;3.538;2022-12-18T03:40:23;39.30;;;18.13;;
47715;SDS011;33476;50.984;3.538;2022-12-18T03:43:06;45.20;;;18.33;;
47715;SDS011;33476;50.984;3.538;2022-12-18T03:45:39;37.75;;;17.05;;
47715;SDS011;33476;50.984;3.538;2022-12-18T03:48:31;39.97;;;17.35;;
47715;SDS011;33476;50.984;3.538;2022-12-18T03:51:05;36.78;;;16.38;;
47715;SDS011;33476;50.984;3.538;2022-12-18T03:53:47;39.60;;;17.83;;
47715;SDS011;33476;50.984;3.538;2022-12-18T03:56:19;38.95;;;18.13;;
47715;SDS011;33476;50.984;3.538;2022-12-18T03:58:50;42.15;;;18.63;;
47715;SDS011;33476;50.984;3.538;2022-12-18T04:01:18;46.13;;;18.92;;
47715;SDS011;33476;50.984;3.538;2022-12-18T04:03:48;41.83;;;18.85;;
47715;SDS011;33476;50.984;3.538;2022-12-18T04:06:14;46.92;;;20.25;;
47715;SDS011;33476;50.984;3.538;2022-12-18T04:08:41;41.00;;;18.95;;
47715;SDS011;33476;50.984;3.538;2022-12-18T04:11:08;40.55;;;18.40;;
47715;SDS011;33476;50.984;3.538;2022-12-18T04:13:37;45.28;;;19.08;;
47715;SDS011;33476;50.984;3.538;2022-12-18T04:16:03;39.38;;;18.10;;
47715;SDS011;33476;50.984;3.538;2022-12-18T04:18:29;44.25;;;20.38;;
47715;SDS011;33476;50.984;3.538;2022-12-18T04:20:54;47.85;;;19.73;;
47715;SDS011;33476;50.984;3.538;2022-12-18T04:23:20;49.55;;;20.13;;
47715;SDS011;33476;50.984;3.538;2022-12-18T04:25:46;44.53;;;20.38;;
47715;SDS011;33476;50.984;3.538;2022-12-18T04:28:12;44.22;;;20.60;;
47715;SDS011;33476;50.984;3.538;2022-12-18T04:30:37;45.35;;;19.85;;
47715;SDS011;33476;50.984;3.538;2022-12-18T04:33:02;52.28;;;20.33;;
47715;SDS011;33476;50.984;3.538;2022-12-18T04:35:28;48.67;;;20.58;;
47715;SDS011;33476;50.984;3.538;2022-12-18T04:37:53;45.97;;;20.25;;
47715;SDS011;33476;50.984;3.538;2022-12-18T04:40:18;43.50;;;19.20;;
47715;SDS011;33476;50.984;3.538;2022-12-18T04:42:44;46.90;;;19.92;;
47715;SDS011;33476;50.984;3.538;2022-12-18T04:45:09;44.83;;;18.98;;
47715;SDS011;33476;50.984;3.538;2022-12-18T04:47:35;43.30;;;19.73;;
47715;SDS011;33476;50.984;3.538;2022-12-18T04:50:00;46.13;;;19.85;;
47715;SDS011;33476;50.984;3.538;2022-12-18T04:52:25;40.22;;;18.88;;
47715;SDS011;33476;50.984;3.538;2022-12-18T04:54:51;39.97;;;19.48;;
47715;SDS011;33476;50.984;3.538;2022-12-18T04:57:16;42.00;;;18.00;;
47715;SDS011;33476;50.984;3.538;2022-12-18T04:59:43;41.22;;;18.63;;
47715;SDS011;33476;50.984;3.538;2022-12-18T05:02:09;45.67;;;19.52;;
47715;SDS011;33476;50.984;3.538;2022-12-18T05:04:34;48.08;;;20.08;;
47715;SDS011;33476;50.984;3.538;2022-12-18T05:06:59;43.00;;;18.98;;
47715;SDS011;33476;50.984;3.538;2022-12-18T05:09:25;38.05;;;17.92;;
47715;SDS011;33476;50.984;3.538;2022-12-18T05:11:50;46.58;;;20.08;;
47715;SDS011;33476;50.984;3.538;2022-12-18T05:14:15;44.63;;;19.33;;
47715;SDS011;33476;50.984;3.538;2022-12-18T05:16:41;41.95;;;18.35;;
47715;SDS011;33476;50.984;3.538;2022-12-18T05:19:06;42.00;;;19.38;;
47715;SDS011;33476;50.984;3.538;2022-12-18T05:21:31;43.63;;;18.10;;
47715;SDS011;33476;50.984;3.538;2022-12-18T05:23:57;42.15;;;18.35;;
47715;SDS011;33476;50.984;3.538;2022-12-18T05:26:22;42.97;;;18.52;;
47715;SDS011;33476;50.984;3.538;2022-12-18T05:28:47;42.58;;;18.83;;
47715;SDS011;33476;50.984;3.538;2022-12-18T05:31:13;40.70;;;17.65;;
47715;SDS011;33476;50.984;3.538;2022-12-18T05:33:39;41.00;;;18.35;;
47715;SDS011;33476;50.984;3.538;2022-12-18T05:36:05;48.15;;;19.27;;
47715;SDS011;33476;50.984;3.538;2022-12-18T05:38:33;40.42;;;17.73;;
47715;SDS011;33476;50.984;3.538;2022-12-18T05:40:59;44.50;;;19.00;;
47715;SDS011;33476;50.984;3.538;2022-12-18T05:43:25;42.28;;;17.75;;
47715;SDS011;33476;50.984;3.538;2022-12-18T05:45:52;44.80;;;18.48;;
47715;SDS011;33476;50.984;3.538;2022-12-18T05:48:18;43.95;;;18.83;;
47715;SDS011;33476;50.984;3.538;2022-12-18T05:50:45;45.25;;;18.25;;
47715;SDS011;33476;50.984;3.538;2022-12-18T05:53:12;40.65;;;17.65;;
47715;SDS011;33476;50.984;3.538;2022-12-18T05:55:39;42.15;;;17.05;;
47715;SDS011;33476;50.984;3.538;2022-12-18T05:58:06;37.13;;;16.83;;
47715;SDS011;33476;50.984;3.538;2022-12-18T06:00:34;39.97;;;17.27;;
47715;SDS011;33476;50.984;3.538;2022-12-18T06:03:04;39.47;;;15.75;;
47715;SDS011;33476;50.984;3.538;2022-12-18T06:05:34;37.88;;;16.63;;
47715;SDS011;33476;50.984;3.538;2022-12-18T06:08:01;37.47;;;16.27;;
47715;SDS011;33476;50.984;3.538;2022-12-18T06:10:26;40.00;;;16.63;;
47715;SDS011;33476;50.984;3.538;2022-12-18T06:12:52;37.88;;;17.23;;
47715;SDS011;33476;50.984;3.538;2022-12-18T06:15:17;35.25;;;15.52;;
47715;SDS011;33476;50.984;3.538;2022-12-18T06:17:42;35.28;;;15.35;;
47715;SDS011;33476;50.984;3.538;2022-12-18T06:20:08;39.45;;;16.80;;
47715;SDS011;33476;50.984;3.538;2022-12-18T06:22:33;38.30;;;16.30;;
47715;SDS011;33476;50.984;3.538;2022-12-18T06:24:59;38.13;;;16.45;;
47715;SDS011;33476;50.984;3.538;2022-12-18T06:27:25;35.75;;;15.77;;
47715;SDS011;33476;50.984;3.538;2022-12-18T06:29:50;34.80;;;15.57;;
47715;SDS011;33476;50.984;3.538;2022-12-18T06:32:16;39.67;;;16.25;;
47715;SDS011;33476;50.984;3.538;2022-12-18T06:34:41;38.90;;;15.93;;
47715;SDS011;33476;50.984;3.538;2022-12-18T06:37:07;35.95;;;14.82;;
47715;SDS011;33476;50.984;3.538;2022-12-18T06:39:32;41.35;;;16.90;;
47715;SDS011;33476;50.984;3.538;2022-12-18T06:41:57;33.97;;;15.38;;
47715;SDS011;33476;50.984;3.538;2022-12-18T06:44:22;37.20;;;16.02;;
47715;SDS011;33476;50.984;3.538;2022-12-18T06:46:48;34.97;;;15.20;;
47715;SDS011;33476;50.984;3.538;2022-12-18T06:49:13;35.35;;;15.23;;
47715;SDS011;33476;50.984;3.538;2022-12-18T06:51:39;34.03;;;14.70;;
47715;SDS011;33476;50.984;3.538;2022-12-18T06:54:04;35.65;;;15.68;;
47715;SDS011;33476;50.984;3.538;2022-12-18T06:56:30;39.75;;;15.52;;
47715;SDS011;33476;50.984;3.538;2022-12-18T06:58:55;33.30;;;15.02;;
47715;SDS011;33476;50.984;3.538;2022-12-18T07:01:21;38.13;;;16.80;;
47715;SDS011;33476;50.984;3.538;2022-12-18T07:03:47;33.22;;;14.32;;
47715;SDS011;33476;50.984;3.538;2022-12-18T07:06:18;36.17;;;15.33;;
47715;SDS011;33476;50.984;3.538;2022-12-18T07:08:45;38.75;;;14.45;;
47715;SDS011;33476;50.984;3.538;2022-12-18T07:11:11;31.13;;;14.43;;
47715;SDS011;33476;50.984;3.538;2022-12-18T07:13:37;32.78;;;13.98;;
47715;SDS011;33476;50.984;3.538;2022-12-18T07:16:07;32.40;;;14.80;;
47715;SDS011;33476;50.984;3.538;2022-12-18T07:18:34;35.53;;;15.48;;
47715;SDS011;33476;50.984;3.538;2022-12-18T07:21:03;34.05;;;13.90;;
47715;SDS011;33476;50.984;3.538;2022-12-18T07:23:30;32.65;;;14.77;;
47715;SDS011;33476;50.984;3.538;2022-12-18T07:25:59;29.77;;;13.35;;
47715;SDS011;33476;50.984;3.538;2022-12-18T07:28:26;28.38;;;13.13;;
47715;SDS011;33476;50.984;3.538;2022-12-18T07:30:51;31.63;;;13.10;;
47715;SDS011;33476;50.984;3.538;2022-12-18T07:33:16;28.38;;;12.63;;
47715;SDS011;33476;50.984;3.538;2022-12-18T07:35:41;28.90;;;13.30;;
47715;SDS011;33476;50.984;3.538;2022-12-18T07:38:07;26.83;;;11.88;;
47715;SDS011;33476;50.984;3.538;2022-12-18T07:40:32;24.92;;;12.02;;
47715;SDS011;33476;50.984;3.538;2022-12-18T07:42:57;28.27;;;11.90;;
47715;SDS011;33476;50.984;3.538;2022-12-18T07:45:23;30.63;;;12.48;;
47715;SDS011;33476;50.984;3.538;2022-12-18T07:47:48;25.55;;;11.23;;
47715;SDS011;33476;50.984;3.538;2022-12-18T07:50:13;24.05;;;11.25;;
47715;SDS011;33476;50.984;3.538;2022-12-18T07:52:39;23.80;;;11.35;;
47715;SDS011;33476;50.984;3.538;2022-12-18T07:55:04;27.15;;;12.07;;
47715;SDS011;33476;50.984;3.538;2022-12-18T07:57:30;26.42;;;11.95;;
47715;SDS011;33476;50.984;3.538;2022-12-18T07:59:55;25.30;;;12.07;;
47715;SDS011;33476;50.984;3.538;2022-12-18T08:02:21;27.88;;;12.13;;
47715;SDS011;33476;50.984;3.538;2022-12-18T08:04:46;26.08;;;11.57;;
47715;SDS011;33476;50.984;3.538;2022-12-18T08:07:11;26.25;;;11.48;;
47715;SDS011;33476;50.984;3.538;2022-12-18T08:09:37;24.10;;;10.15;;
47715;SDS011;33476;50.984;3.538;2022-12-18T08:12:03;24.10;;;11.13;;
47715;SDS011;33476;50.984;3.538;2022-12-18T08:14:28;20.60;;;9.80;;
47715;SDS011;33476;50.984;3.538;2022-12-18T08:16:54;19.63;;;9.98;;
47715;SDS011;33476;50.984;3.538;2022-12-18T08:19:19;24.23;;;11.73;;
47715;SDS011;33476;50.984;3.538;2022-12-18T08:21:44;28.08;;;13.25;;
47715;SDS011;33476;50.984;3.538;2022-12-18T08:24:10;23.48;;;11.65;;
47715;SDS011;33476;50.984;3.538;2022-12-18T08:26:36;24.73;;;10.23;;
47715;SDS011;33476;50.984;3.538;2022-12-18T08:29:01;22.95;;;10.23;;
47715;SDS011;33476;50.984;3.538;2022-12-18T08:31:29;23.90;;;10.23;;
47715;SDS011;33476;50.984;3.538;2022-12-18T08:33:55;20.63;;;9.27;;
47715;SDS011;33476;50.984;3.538;2022-12-18T08:36:20;21.20;;;9.57;;
47715;SDS011;33476;50.984;3.538;2022-12-18T08:38:46;23.70;;;10.20;;
47715;SDS011;33476;50.984;3.538;2022-12-18T08:41:12;19.23;;;9.32;;
47715;SDS011;33476;50.984;3.538;2022-12-18T08:43:39;23.08;;;9.18;;
47715;SDS011;33476;50.984;3.538;2022-12-18T08:46:24;18.25;;;9.00;;
47715;SDS011;33476;50.984;3.538;2022-12-18T08:48:51;19.48;;;9.35;;
47715;SDS011;33476;50.984;3.538;2022-12-18T08:51:18;21.35;;;8.90;;
47715;SDS011;33476;50.984;3.538;2022-12-18T08:53:44;20.75;;;9.43;;
47715;SDS011;33476;50.984;3.538;2022-12-18T08:56:10;20.50;;;8.15;;
47715;SDS011;33476;50.984;3.538;2022-12-18T08:58:37;19.60;;;9.05;;
47715;SDS011;33476;50.984;3.538;2022-12-18T09:01:02;18.13;;;8.30;;
47715;SDS011;33476;50.984;3.538;2022-12-18T09:03:29;18.23;;;8.23;;
47715;SDS011;33476;50.984;3.538;2022-12-18T09:05:55;20.33;;;9.25;;
47715;SDS011;33476;50.984;3.538;2022-12-18T09:08:20;17.88;;;8.95;;
47715;SDS011;33476;50.984;3.538;2022-12-18T09:10:46;19.08;;;9.00;;
47715;SDS011;33476;50.984;3.538;2022-12-18T09:13:13;22.85;;;9.25;;
47715;SDS011;33476;50.984;3.538;2022-12-18T09:15:41;18.52;;;8.85;;
47715;SDS011;33476;50.984;3.538;2022-12-18T09:18:07;19.98;;;8.43;;
47715;SDS011;33476;50.984;3.538;2022-12-18T09:20:33;17.02;;;7.85;;
47715;SDS011;33476;50.984;3.538;2022-12-18T09:22:59;24.20;;;8.52;;
47715;SDS011;33476;50.984;3.538;2022-12-18T09:25:24;17.67;;;7.70;;
47715;SDS011;33476;50.984;3.538;2022-12-18T09:27:50;17.90;;;7.88;;
47715;SDS011;33476;50.984;3.538;2022-12-18T09:30:15;18.08;;;8.18;;
47715;SDS011;33476;50.984;3.538;2022-12-18T09:32:40;18.95;;;9.18;;
47715;SDS011;33476;50.984;3.538;2022-12-18T09:35:06;19.10;;;8.18;;
47715;SDS011;33476;50.984;3.538;2022-12-18T09:37:31;18.15;;;8.73;;
47715;SDS011;33476;50.984;3.538;2022-12-18T09:39:56;17.38;;;8.57;;
47715;SDS011;33476;50.984;3.538;2022-12-18T09:42:22;18.20;;;8.63;;
47715;SDS011;33476;50.984;3.538;2022-12-18T09:44:49;17.60;;;8.40;;
47715;SDS011;33476;50.984;3.538;2022-12-18T09:47:22;17.30;;;7.88;;
47715;SDS011;33476;50.984;3.538;2022-12-18T09:49:50;14.65;;;7.03;;
47715;SDS011;33476;50.984;3.538;2022-12-18T09:54:48;17.27;;;8.27;;
47715;SDS011;33476;50.984;3.538;2022-12-18T09:57:20;21.77;;;8.25;;
47715;SDS011;33476;50.984;3.538;2022-12-18T09:59:50;19.38;;;8.48;;
47715;SDS011;33476;50.984;3.538;2022-12-18T10:02:21;15.35;;;7.63;;
47715;SDS011;33476;50.984;3.538;2022-12-18T10:05:05;17.52;;;7.20;;
47715;SDS011;33476;50.984;3.538;2022-12-18T10:13:09;14.93;;;6.55;;
47715;SDS011;33476;50.984;3.538;2022-12-18T10:15:51;15.23;;;7.30;;
47715;SDS011;33476;50.984;3.538;2022-12-18T10:21:11;14.00;;;7.17;;
47715;SDS011;33476;50.984;3.538;2022-12-18T10:28:38;14.88;;;7.55;;
47715;SDS011;33476;50.984;3.538;2022-12-18T10:31:16;16.50;;;7.25;;
47715;SDS011;33476;50.984;3.538;2022-12-18T10:33:43;13.85;;;6.88;;
47715;SDS011;33476;50.984;3.538;2022-12-18T10:36:09;14.55;;;7.03;;
47715;SDS011;33476;50.984;3.538;2022-12-18T10:38:35;16.88;;;6.90;;
47715;SDS011;33476;50.984;3.538;2022-12-18T10:41:02;17.08;;;7.40;;
47715;SDS011;33476;50.984;3.538;2022-12-18T10:48:26;17.67;;;8.07;;
47715;SDS011;33476;50.984;3.538;2022-12-18T10:50:52;16.30;;;8.20;;
47715;SDS011;33476;50.984;3.538;2022-12-18T10:53:22;16.83;;;8.63;;
47715;SDS011;33476;50.984;3.538;2022-12-18T10:55:50;18.17;;;8.55;;
47715;SDS011;33476;50.984;3.538;2022-12-18T10:58:25;15.63;;;7.75;;
47715;SDS011;33476;50.984;3.538;2022-12-18T11:01:12;19.10;;;8.48;;
47715;SDS011;33476;50.984;3.538;2022-12-18T11:06:13;19.75;;;8.65;;
47715;SDS011;33476;50.984;3.538;2022-12-18T11:08:41;18.30;;;8.02;;
47715;SDS011;33476;50.984;3.538;2022-12-18T11:11:18;16.00;;;7.97;;
47715;SDS011;33476;50.984;3.538;2022-12-18T11:14:04;18.52;;;8.88;;
47715;SDS011;33476;50.984;3.538;2022-12-18T11:16:36;17.25;;;8.73;;
47715;SDS011;33476;50.984;3.538;2022-12-18T11:19:16;17.48;;;8.85;;
47715;SDS011;33476;50.984;3.538;2022-12-18T11:21:47;23.30;;;9.38;;
47715;SDS011;33476;50.984;3.538;2022-12-18T11:24:24;18.95;;;8.63;;
47715;SDS011;33476;50.984;3.538;2022-12-18T11:26:54;23.00;;;9.05;;
47715;SDS011;33476;50.984;3.538;2022-12-18T11:29:33;20.95;;;9.23;;
47715;SDS011;33476;50.984;3.538;2022-12-18T11:32:21;17.95;;;9.25;;
47715;SDS011;33476;50.984;3.538;2022-12-18T11:34:59;19.58;;;9.25;;
47715;SDS011;33476;50.984;3.538;2022-12-18T11:37:29;22.25;;;10.18;;
47715;SDS011;33476;50.984;3.538;2022-12-18T11:39:57;21.50;;;9.43;;
47715;SDS011;33476;50.984;3.538;2022-12-18T11:42:35;21.20;;;10.15;;
47715;SDS011;33476;50.984;3.538;2022-12-18T11:47:45;21.30;;;10.05;;
47715;SDS011;33476;50.984;3.538;2022-12-18T11:53:02;19.38;;;9.85;;
47715;SDS011;33476;50.984;3.538;2022-12-18T12:03:49;25.80;;;11.02;;
47715;SDS011;33476;50.984;3.538;2022-12-18T12:25:43;25.70;;;11.55;;
47715;SDS011;33476;50.984;3.538;2022-12-18T12:28:28;31.08;;;11.68;;
47715;SDS011;33476;50.984;3.538;2022-12-18T12:39:34;27.08;;;10.98;;
47715;SDS011;33476;50.984;3.538;2022-12-18T12:42:03;24.52;;;11.68;;
47715;SDS011;33476;50.984;3.538;2022-12-18T12:44:54;23.42;;;11.05;;
47715;SDS011;33476;50.984;3.538;2022-12-18T12:47:32;24.27;;;11.52;;
47715;SDS011;33476;50.984;3.538;2022-12-18T12:50:03;24.98;;;11.82;;
47715;SDS011;33476;50.984;3.538;2022-12-18T12:52:35;29.80;;;11.70;;
47715;SDS011;33476;50.984;3.538;2022-12-18T12:55:12;29.65;;;12.13;;
47715;SDS011;33476;50.984;3.538;2022-12-18T12:57:46;30.92;;;12.88;;
47715;SDS011;33476;50.984;3.538;2022-12-18T13:00:20;28.60;;;12.93;;
47715;SDS011;33476;50.984;3.538;2022-12-18T13:02:54;33.28;;;12.73;;
47715;SDS011;33476;50.984;3.538;2022-12-18T13:05:34;28.60;;;12.35;;
47715;SDS011;33476;50.984;3.538;2022-12-18T13:08:04;29.85;;;12.13;;
47715;SDS011;33476;50.984;3.538;2022-12-18T13:10:42;29.98;;;12.50;;
47715;SDS011;33476;50.984;3.538;2022-12-18T13:13:08;25.95;;;12.10;;
47715;SDS011;33476;50.984;3.538;2022-12-18T13:15:41;26.63;;;11.25;;
47715;SDS011;33476;50.984;3.538;2022-12-18T13:20:35;26.75;;;12.00;;
47715;SDS011;33476;50.984;3.538;2022-12-18T13:25:49;28.45;;;11.77;;
47715;SDS011;33476;50.984;3.538;2022-12-18T13:28:56;28.70;;;12.85;;
47715;SDS011;33476;50.984;3.538;2022-12-18T13:36:43;32.45;;;13.25;;
47715;SDS011;33476;50.984;3.538;2022-12-18T13:41:33;30.75;;;12.48;;
47715;SDS011;33476;50.984;3.538;2022-12-18T13:46:43;30.60;;;13.32;;
47715;SDS011;33476;50.984;3.538;2022-12-18T13:51:46;27.55;;;13.02;;
47715;SDS011;33476;50.984;3.538;2022-12-18T13:54:18;31.10;;;13.00;;
47715;SDS011;33476;50.984;3.538;2022-12-18T13:56:47;32.55;;;13.90;;
47715;SDS011;33476;50.984;3.538;2022-12-18T14:01:47;30.00;;;13.50;;
47715;SDS011;33476;50.984;3.538;2022-12-18T14:04:26;29.83;;;13.90;;
47715;SDS011;33476;50.984;3.538;2022-12-18T14:07:12;28.17;;;12.63;;
47715;SDS011;33476;50.984;3.538;2022-12-18T14:10:01;29.05;;;12.77;;
47715;SDS011;33476;50.984;3.538;2022-12-18T14:12:27;32.42;;;13.23;;
47715;SDS011;33476;50.984;3.538;2022-12-18T14:15:26;28.63;;;13.13;;
47715;SDS011;33476;50.984;3.538;2022-12-18T14:18:08;29.58;;;13.35;;
47715;SDS011;33476;50.984;3.538;2022-12-18T14:20:57;32.08;;;12.48;;
47715;SDS011;33476;50.984;3.538;2022-12-18T14:23:37;30.75;;;12.88;;
47715;SDS011;33476;50.984;3.538;2022-12-18T14:28:47;34.40;;;14.75;;
47715;SDS011;33476;50.984;3.538;2022-12-18T14:31:19;30.38;;;13.25;;
47715;SDS011;33476;50.984;3.538;2022-12-18T14:33:46;31.38;;;13.77;;
47715;SDS011;33476;50.984;3.538;2022-12-18T14:36:13;29.02;;;13.02;;
47715;SDS011;33476;50.984;3.538;2022-12-18T14:38:41;34.08;;;14.48;;
47715;SDS011;33476;50.984;3.538;2022-12-18T14:43:37;33.90;;;14.85;;
47715;SDS011;33476;50.984;3.538;2022-12-18T14:46:04;32.22;;;13.77;;
47715;SDS011;33476;50.984;3.538;2022-12-18T14:48:50;31.27;;;13.48;;
47715;SDS011;33476;50.984;3.538;2022-12-18T14:51:17;34.72;;;13.70;;
47715;SDS011;33476;50.984;3.538;2022-12-18T14:53:49;32.72;;;14.00;;
47715;SDS011;33476;50.984;3.538;2022-12-18T14:56:20;35.70;;;13.20;;
47715;SDS011;33476;50.984;3.538;2022-12-18T14:59:00;31.45;;;13.43;;
47715;SDS011;33476;50.984;3.538;2022-12-18T15:01:32;31.13;;;12.68;;
47715;SDS011;33476;50.984;3.538;2022-12-18T15:04:01;32.70;;;13.63;;
47715;SDS011;33476;50.984;3.538;2022-12-18T15:06:37;33.83;;;13.88;;
47715;SDS011;33476;50.984;3.538;2022-12-18T15:09:21;32.33;;;13.95;;
47715;SDS011;33476;50.984;3.538;2022-12-18T15:11:49;34.42;;;14.25;;
47715;SDS011;33476;50.984;3.538;2022-12-18T15:14:30;32.75;;;13.57;;
47715;SDS011;33476;50.984;3.538;2022-12-18T15:17:05;30.65;;;12.98;;
47715;SDS011;33476;50.984;3.538;2022-12-18T15:19:40;31.60;;;13.52;;
47715;SDS011;33476;50.984;3.538;2022-12-18T15:22:26;33.30;;;13.60;;
47715;SDS011;33476;50.984;3.538;2022-12-18T15:24:55;33.60;;;14.00;;
47715;SDS011;33476;50.984;3.538;2022-12-18T15:27:22;30.75;;;13.18;;
47715;SDS011;33476;50.984;3.538;2022-12-18T15:32:38;31.48;;;13.05;;
47715;SDS011;33476;50.984;3.538;2022-12-18T15:40:01;32.67;;;14.13;;
47715;SDS011;33476;50.984;3.538;2022-12-18T15:42:27;32.15;;;13.98;;
47715;SDS011;33476;50.984;3.538;2022-12-18T15:45:11;34.38;;;13.13;;
47715;SDS011;33476;50.984;3.538;2022-12-18T15:47:38;31.17;;;12.20;;
47715;SDS011;33476;50.984;3.538;2022-12-18T15:50:03;33.17;;;12.95;;
47715;SDS011;33476;50.984;3.538;2022-12-18T15:52:29;32.53;;;13.05;;
47715;SDS011;33476;50.984;3.538;2022-12-18T15:54:56;31.55;;;13.52;;
47715;SDS011;33476;50.984;3.538;2022-12-18T15:57:40;29.02;;;12.45;;
47715;SDS011;33476;50.984;3.538;2022-12-18T16:00:05;32.47;;;13.10;;
47715;SDS011;33476;50.984;3.538;2022-12-18T16:02:31;29.58;;;12.43;;
47715;SDS011;33476;50.984;3.538;2022-12-18T16:04:56;30.80;;;13.18;;
47715;SDS011;33476;50.984;3.538;2022-12-18T16:07:22;32.53;;;12.65;;
47715;SDS011;33476;50.984;3.538;2022-12-18T16:09:47;29.70;;;12.57;;
47715;SDS011;33476;50.984;3.538;2022-12-18T16:12:16;34.15;;;12.52;;
47715;SDS011;33476;50.984;3.538;2022-12-18T16:14:46;28.23;;;12.38;;
47715;SDS011;33476;50.984;3.538;2022-12-18T16:17:12;31.30;;;12.73;;
47715;SDS011;33476;50.984;3.538;2022-12-18T16:19:38;32.42;;;12.32;;
47715;SDS011;33476;50.984;3.538;2022-12-18T16:22:03;33.70;;;13.60;;
47715;SDS011;33476;50.984;3.538;2022-12-18T16:24:30;30.25;;;13.10;;
47715;SDS011;33476;50.984;3.538;2022-12-18T16:26:58;32.58;;;13.07;;
47715;SDS011;33476;50.984;3.538;2022-12-18T16:29:25;29.27;;;12.48;;
47715;SDS011;33476;50.984;3.538;2022-12-18T16:31:55;34.83;;;13.63;;
47715;SDS011;33476;50.984;3.538;2022-12-18T16:34:22;32.95;;;13.30;;